Tanana, Alaska
Current Conditions -  °F | °C
As of 12:52 AM on Monday 22 Dec 2014 (Local Time) from PATA Reporting Station
Overcast Overcast  
Wind Chill:   Ceiling: 2700
Heat Index:   Visibility: 10mi
Dew Point: -5°   Wind: 0mph
Humidity: 79%   Direction: NA
Pressure: 29.68"   Gusts: NA
Location:  65.18°N, 152.08°W
Report Text: PATA 220952Z AUTO 00000KT 10SM OVC027 M18/M21 A2968 RMK AO2 SLP058 T11781206 TSNO
Loading
Personal Weather Stations






























Interactive Weather Map New forecast layout! Learn more

10-Day Weather Forecast

Advertisements
Track Severe Weather on mobile